Time;durP1;ratioP1;P1;durP2;ratioP2;P2;SDS_P1;SDS_P2;PMS_P1;PMS_P2;Temp;Humidity;BMP_temperature;BMP_pressure;BME280_temperature;BME280_humidity;BME280_pressure;Samples;Min_cycle;Max_cycle;Signal;HPM_P1;HPM_P2
2023/09/06 00:00:45;;;;;;;1.20;0.40;;;17.90;99.90;;;;;;4974200;28;20505;-84
2023/09/06 00:03:12;;;;;;;1.00;0.30;;;17.80;99.90;;;;;;4975211;28;20070;-83
2023/09/06 00:05:41;;;;;;;1.23;0.40;;;17.70;99.90;;;;;;4974947;28;20391;-84
2023/09/06 00:08:13;;;;;;;0.98;0.30;;;17.70;99.90;;;;;;4951726;28;20031;-83
2023/09/06 00:10:39;;;;;;;1.40;0.40;;;17.70;99.90;;;;;;4959611;28;20403;-84
2023/09/06 00:13:09;;;;;;;1.15;0.40;;;17.60;99.90;;;;;;4972218;28;20061;-83
2023/09/06 00:15:36;;;;;;;1.05;0.40;;;17.60;99.90;;;;;;4953079;28;20053;-84
2023/09/06 00:18:05;;;;;;;1.55;0.40;;;17.60;99.90;;;;;;5041727;28;20026;-84
2023/09/06 00:20:34;;;;;;;1.13;0.30;;;17.70;99.90;;;;;;4954866;28;20033;-84
2023/09/06 00:23:04;;;;;;;1.05;0.40;;;17.60;99.90;;;;;;4973559;28;20589;-82
2023/09/06 00:25:32;;;;;;;2.85;0.35;;;17.60;99.90;;;;;;4978502;28;20125;-83
2023/09/06 00:27:59;;;;;;;1.10;0.40;;;17.50;99.90;;;;;;4953310;28;20061;-83
2023/09/06 00:30:25;;;;;;;1.05;0.40;;;17.50;99.90;;;;;;4967687;28;20023;-83
2023/09/06 00:32:54;;;;;;;1.00;0.38;;;17.40;99.90;;;;;;4969281;28;20041;-83
2023/09/06 00:35:22;;;;;;;0.95;0.30;;;17.40;99.90;;;;;;4984871;28;20057;-83
2023/09/06 00:37:48;;;;;;;1.08;0.40;;;17.50;99.90;;;;;;4979287;28;20023;-83
2023/09/06 00:40:18;;;;;;;0.98;0.40;;;17.60;99.90;;;;;;4970308;28;20034;-83
2023/09/06 00:42:59;;;;;;;1.05;0.32;;;17.60;99.90;;;;;;4983087;28;20080;-83
2023/09/06 00:45:43;;;;;;;0.95;0.40;;;17.70;99.90;;;;;;4992885;28;20049;-83
2023/09/06 00:48:16;;;;;;;1.08;0.30;;;17.70;99.90;;;;;;4975591;28;20023;-84
2023/09/06 00:50:42;;;;;;;0.75;0.30;;;17.80;99.90;;;;;;4997690;28;20028;-83
2023/09/06 00:53:09;;;;;;;1.52;0.30;;;17.80;99.90;;;;;;4971802;28;20123;-83
2023/09/06 00:55:37;;;;;;;0.80;0.30;;;17.80;99.90;;;;;;4954151;28;20033;-83
2023/09/06 00:58:06;;;;;;;1.80;0.32;;;17.70;99.90;;;;;;4974250;28;20541;-82
2023/09/06 01:00:33;;;;;;;0.70;0.30;;;17.70;99.90;;;;;;4968907;28;20028;-83
2023/09/06 01:02:58;;;;;;;0.77;0.30;;;17.70;99.90;;;;;;4987736;28;20075;-83
2023/09/06 01:05:28;;;;;;;0.85;0.30;;;17.70;99.90;;;;;;4990837;28;20507;-84
2023/09/06 01:07:57;;;;;;;;;;;17.70;99.90;;;;;;4961669;28;20395;-84
2023/09/06 01:10:22;;;;;;;1.13;0.30;;;17.70;99.90;;;;;;4982050;28;19914;-84
2023/09/06 01:12:48;;;;;;;0.70;0.30;;;17.80;99.90;;;;;;4962350;28;20036;-84
2023/09/06 01:15:14;;;;;;;0.50;0.20;;;17.70;99.90;;;;;;4996164;28;20049;-84
2023/09/06 01:17:43;;;;;;;0.90;0.20;;;17.70;99.90;;;;;;4970368;28;20027;-84
2023/09/06 01:20:29;;;;;;;1.83;0.30;;;17.80;99.90;;;;;;4972165;28;20118;-85
2023/09/06 01:23:10;;;;;;;0.85;0.22;;;18.00;99.90;;;;;;4983583;28;20022;-83
2023/09/06 01:25:35;;;;;;;1.40;0.50;;;18.00;99.90;;;;;;4972335;28;20045;-84
2023/09/06 01:28:02;;;;;;;1.08;0.30;;;17.90;99.90;;;;;;4997573;28;20031;-85
2023/09/06 01:30:29;;;;;;;1.63;0.30;;;17.80;99.90;;;;;;4978502;28;20038;-85
2023/09/06 01:32:55;;;;;;;0.95;0.30;;;17.70;99.90;;;;;;4977534;28;20026;-83
2023/09/06 01:35:21;;;;;;;1.98;0.30;;;17.80;99.90;;;;;;4994072;28;20030;-84
2023/09/06 01:37:50;;;;;;;1.35;0.32;;;17.70;99.90;;;;;;5009010;28;20023;-83
2023/09/06 01:40:17;;;;;;;0.93;0.30;;;17.60;99.90;;;;;;4963432;28;20506;-84
2023/09/06 01:42:47;;;;;;;1.15;0.30;;;17.50;99.90;;;;;;4989498;28;20041;-84
2023/09/06 01:45:17;;;;;;;1.10;0.30;;;17.50;99.90;;;;;;5007354;28;20039;-83
2023/09/06 01:47:44;;;;;;;0.98;0.30;;;17.40;99.90;;;;;;4970284;28;20041;-83
2023/09/06 01:50:11;;;;;;;1.00;0.30;;;17.50;99.90;;;;;;4977334;28;20030;-84
2023/09/06 01:52:36;;;;;;;0.85;0.30;;;17.50;99.90;;;;;;4988763;28;20387;-85
2023/09/06 01:55:05;;;;;;;2.30;0.30;;;17.40;99.90;;;;;;4981047;28;20290;-83
2023/09/06 01:57:30;;;;;;;0.77;0.30;;;17.40;99.90;;;;;;4983666;28;20038;-84
2023/09/06 01:59:56;;;;;;;1.10;0.30;;;17.30;99.90;;;;;;4959115;28;20030;-84
2023/09/06 02:02:23;;;;;;;0.90;0.30;;;17.30;99.90;;;;;;4957226;28;20027;-83
2023/09/06 02:04:49;;;;;;;1.63;0.30;;;17.30;99.90;;;;;;4994962;28;20039;-84
2023/09/06 02:07:15;;;;;;;1.88;0.35;;;17.30;99.90;;;;;;4985737;28;20473;-83
2023/09/06 02:09:41;;;;;;;0.90;0.30;;;17.30;99.90;;;;;;4983413;28;20026;-84
2023/09/06 02:12:07;;;;;;;1.13;0.20;;;17.30;99.90;;;;;;4987125;28;20407;-83
2023/09/06 02:14:34;;;;;;;1.73;0.40;;;17.20;99.90;;;;;;4973432;28;20034;-83
2023/09/06 02:17:00;;;;;;;0.70;0.30;;;17.20;99.90;;;;;;4984223;28;20041;-83
2023/09/06 02:19:30;;;;;;;0.98;0.30;;;17.30;99.90;;;;;;4975040;28;20041;-83
2023/09/06 02:21:56;;;;;;;0.88;0.30;;;17.20;99.90;;;;;;4957650;28;20474;-84
2023/09/06 02:24:22;;;;;;;1.30;0.32;;;17.00;99.90;;;;;;4974885;28;20062;-83
2023/09/06 02:26:47;;;;;;;1.42;0.40;;;17.00;99.90;;;;;;4975698;28;20030;-84
2023/09/06 02:29:13;;;;;;;1.02;0.40;;;16.90;99.90;;;;;;4989348;28;20026;-82
2023/09/06 02:31:39;;;;;;;0.98;0.40;;;16.90;99.90;;;;;;4988392;28;20022;-83
2023/09/06 02:34:06;;;;;;;1.10;0.40;;;16.80;99.90;;;;;;4966632;28;20071;-83
2023/09/06 02:36:32;;;;;;;1.30;0.30;;;16.80;99.90;;;;;;5000009;28;20474;-83
2023/09/06 02:38:57;;;;;;;1.02;0.30;;;16.70;99.90;;;;;;4954892;28;20487;-84
2023/09/06 02:41:23;;;;;;;1.65;0.40;;;16.70;99.90;;;;;;4955498;28;20053;-84
2023/09/06 02:43:49;;;;;;;1.20;0.47;;;16.60;99.90;;;;;;4988347;28;20447;-82
2023/09/06 02:46:15;;;;;;;1.40;0.40;;;16.50;99.90;;;;;;4969001;28;20038;-83
2023/09/06 02:48:46;;;;;;;1.63;0.32;;;16.60;99.90;;;;;;4963532;28;20378;-82
2023/09/06 02:51:15;;;;;;;0.90;0.40;;;16.50;99.90;;;;;;4990654;28;20049;-82
2023/09/06 02:53:44;;;;;;;1.70;0.40;;;16.60;99.90;;;;;;4996470;28;20026;-83
2023/09/06 02:56:10;;;;;;;2.43;0.30;;;16.50;99.90;;;;;;4981296;28;20085;-82
2023/09/06 02:58:37;;;;;;;0.95;0.40;;;16.40;99.90;;;;;;4975209;28;20285;-83
2023/09/06 03:01:06;;;;;;;1.15;0.50;;;16.30;99.90;;;;;;4964183;28;20047;-83
2023/09/06 03:03:31;;;;;;;1.70;0.40;;;16.20;99.90;;;;;;4971828;28;20033;-83
2023/09/06 03:06:04;;;;;;;1.20;0.40;;;16.10;99.90;;;;;;4956409;28;20089;-83
2023/09/06 03:08:29;;;;;;;3.58;0.50;;;16.10;99.90;;;;;;4979195;28;20493;-85
2023/09/06 03:10:55;;;;;;;1.00;0.40;;;16.10;99.90;;;;;;4978660;28;20030;-83
2023/09/06 03:13:21;;;;;;;1.50;0.45;;;16.00;99.90;;;;;;4977575;28;20073;-84
2023/09/06 03:15:51;;;;;;;1.05;0.40;;;16.00;99.90;;;;;;4984022;28;20027;-83
2023/09/06 03:18:20;;;;;;;0.90;0.40;;;16.00;99.90;;;;;;4954973;28;20022;-84
2023/09/06 03:20:47;;;;;;;1.05;0.40;;;15.90;99.90;;;;;;4978484;28;20049;-83
2023/09/06 03:23:23;;;;;;;1.48;0.47;;;15.90;99.90;;;;;;5035057;28;20367;-83
2023/09/06 03:25:54;;;;;;;1.40;0.40;;;15.90;99.90;;;;;;4966264;28;20491;-81
2023/09/06 03:28:21;;;;;;;0.95;0.40;;;15.90;99.90;;;;;;4974206;28;20023;-83
2023/09/06 03:30:49;;;;;;;0.90;0.40;;;15.80;99.90;;;;;;4966209;28;20042;-83
2023/09/06 03:33:15;;;;;;;1.33;0.50;;;15.70;99.90;;;;;;4962027;28;20018;-83
2023/09/06 03:35:45;;;;;;;1.00;0.40;;;15.70;99.90;;;;;;4970158;28;20033;-83
2023/09/06 03:38:11;;;;;;;0.90;0.32;;;15.70;99.90;;;;;;4976754;28;20566;-82
2023/09/06 03:40:37;;;;;;;1.13;0.40;;;15.70;99.90;;;;;;4992371;28;20114;-83
2023/09/06 03:43:05;;;;;;;1.08;0.40;;;15.70;99.90;;;;;;4986918;28;20031;-83
2023/09/06 03:45:34;;;;;;;1.73;0.60;;;15.70;99.90;;;;;;4970387;28;20066;-82
2023/09/06 03:48:00;;;;;;;1.13;0.40;;;15.60;99.90;;;;;;4957272;28;20129;-83
2023/09/06 03:50:27;;;;;;;1.15;0.43;;;15.60;99.90;;;;;;4978025;28;20034;-83
2023/09/06 03:52:53;;;;;;;1.48;0.40;;;15.60;99.90;;;;;;4956212;28;20026;-82
2023/09/06 03:55:20;;;;;;;3.50;0.40;;;15.50;99.90;;;;;;4969696;28;20026;-82
2023/09/06 03:57:47;;;;;;;1.20;0.40;;;15.50;99.90;;;;;;4978121;28;20019;-83
2023/09/06 04:00:31;;;;;;;1.30;0.40;;;15.40;99.90;;;;;;4972832;28;20034;-84
2023/09/06 04:03:07;;;;;;;2.08;0.40;;;15.40;99.90;;;;;;4970291;28;20048;-83
2023/09/06 04:05:34;;;;;;;1.08;0.47;;;15.40;99.90;;;;;;4972375;28;20070;-83
2023/09/06 04:08:06;;;;;;;1.80;0.43;;;15.30;99.90;;;;;;4973015;28;20018;-83
2023/09/06 04:10:43;;;;;;;1.60;0.50;;;15.30;99.90;;;;;;5052451;28;20432;-84
2023/09/06 04:13:12;;;;;;;1.20;0.40;;;15.30;99.90;;;;;;4971735;28;20043;-83
2023/09/06 04:15:42;;;;;;;1.00;0.43;;;15.30;99.90;;;;;;4985632;28;20034;-83
2023/09/06 04:18:10;;;;;;;1.63;0.57;;;15.30;99.90;;;;;;4959655;28;20047;-83
2023/09/06 04:20:39;;;;;;;1.10;0.50;;;15.30;99.90;;;;;;5004532;28;20027;-82
2023/09/06 04:23:07;;;;;;;;;;;15.30;99.90;;;;;;4972043;28;20397;-84
2023/09/06 04:25:44;;;;;;;0.90;0.40;;;15.30;99.90;;;;;;5050202;28;19925;-83
2023/09/06 04:28:16;;;;;;;1.55;0.40;;;15.20;99.90;;;;;;4974604;28;20490;-82
2023/09/06 04:30:47;;;;;;;1.35;0.45;;;15.20;99.90;;;;;;4957109;28;20062;-83
2023/09/06 04:33:15;;;;;;;1.08;0.40;;;15.20;99.90;;;;;;4988574;28;20376;-83
2023/09/06 04:35:50;;;;;;;1.17;0.50;;;15.20;99.90;;;;;;4982657;28;20033;-84
2023/09/06 04:38:21;;;;;;;1.13;0.50;;;15.10;99.90;;;;;;4967949;28;20111;-83
2023/09/06 04:40:51;;;;;;;1.52;0.40;;;15.10;99.90;;;;;;4967410;28;20034;-84
2023/09/06 04:43:19;;;;;;;1.10;0.45;;;15.20;99.90;;;;;;4979130;28;20117;-83
2023/09/06 04:45:49;;;;;;;1.58;0.43;;;15.20;99.90;;;;;;4975396;28;20038;-83
2023/09/06 04:48:18;;;;;;;1.33;0.40;;;15.20;99.90;;;;;;5032473;28;20088;-83
2023/09/06 04:50:50;;;;;;;1.40;0.50;;;15.20;99.90;;;;;;4979287;28;20053;-84
2023/09/06 04:53:17;;;;;;;1.80;0.40;;;15.20;99.90;;;;;;4952695;28;20026;-83
2023/09/06 04:55:49;;;;;;;1.10;0.40;;;15.20;99.90;;;;;;4971579;28;20037;-84
2023/09/06 04:58:16;;;;;;;1.25;0.40;;;15.20;99.90;;;;;;4980823;28;20050;-82
2023/09/06 05:00:44;;;;;;;1.65;0.40;;;15.10;99.90;;;;;;4993304;28;20076;-83
2023/09/06 05:03:13;;;;;;;1.30;0.43;;;15.20;99.90;;;;;;4955747;28;20410;-84
2023/09/06 05:05:41;;;;;;;3.50;0.40;;;15.10;99.90;;;;;;5010398;28;20104;-84
2023/09/06 05:08:07;;;;;;;1.42;0.40;;;15.10;99.90;;;;;;4950423;28;20733;-84
2023/09/06 05:10:39;;;;;;;1.00;0.40;;;15.10;99.90;;;;;;4969943;28;20035;-85
2023/09/06 05:13:07;;;;;;;2.15;0.50;;;15.10;99.90;;;;;;4963962;28;20131;-85
2023/09/06 05:15:38;;;;;;;1.40;0.50;;;15.10;99.90;;;;;;4973340;28;20525;-84
2023/09/06 05:18:05;;;;;;;1.70;0.60;;;15.10;99.90;;;;;;4983044;28;20516;-84
2023/09/06 05:20:37;;;;;;;1.30;0.50;;;15.10;99.90;;;;;;4984583;28;20072;-85
2023/09/06 05:23:12;;;;;;;1.98;0.70;;;15.20;99.90;;;;;;4963337;28;20099;-84
2023/09/06 05:25:40;;;;;;;1.10;0.40;;;15.10;99.90;;;;;;4968344;28;20092;-84
2023/09/06 05:28:09;;;;;;;1.35;0.50;;;15.10;99.90;;;;;;4968059;28;20099;-84
2023/09/06 05:30:43;;;;;;;1.27;0.40;;;15.10;99.90;;;;;;4980754;28;20023;-84
2023/09/06 05:33:13;;;;;;;2.47;0.50;;;15.20;99.90;;;;;;4979328;28;20034;-83
2023/09/06 05:35:41;;;;;;;1.80;0.50;;;15.30;99.90;;;;;;4991234;28;20023;-84
2023/09/06 05:38:09;;;;;;;1.05;0.50;;;15.20;99.90;;;;;;4979467;28;20079;-84
2023/09/06 05:40:37;;;;;;;1.10;0.40;;;15.20;99.90;;;;;;4965824;28;20094;-84
2023/09/06 05:43:03;;;;;;;0.93;0.40;;;15.30;99.90;;;;;;4973748;28;20079;-84
2023/09/06 05:45:32;;;;;;;;;;;15.30;99.90;;;;;;5008004;28;20077;-84
2023/09/06 05:47:58;;;;;;;1.23;0.40;;;15.40;99.90;;;;;;4987056;28;19911;-83
2023/09/06 05:50:24;;;;;;;1.33;0.50;;;15.40;99.90;;;;;;4984246;28;20032;-83
2023/09/06 05:52:49;;;;;;;1.10;0.50;;;15.50;99.90;;;;;;4998124;28;20215;-84
2023/09/06 05:55:15;;;;;;;1.48;0.50;;;15.50;99.90;;;;;;4965896;28;20394;-84
2023/09/06 05:57:42;;;;;;;1.60;0.60;;;15.50;99.90;;;;;;4954917;28;20022;-84
2023/09/06 06:00:17;;;;;;;1.13;0.55;;;15.60;99.90;;;;;;4991790;28;20026;-84
2023/09/06 06:02:49;;;;;;;2.25;0.50;;;15.60;99.90;;;;;;4992847;28;20107;-84
2023/09/06 06:05:18;;;;;;;1.50;0.68;;;15.70;99.90;;;;;;4995128;28;20029;-84
2023/09/06 06:07:45;;;;;;;1.30;0.75;;;15.80;99.90;;;;;;4994668;28;20037;-86
2023/09/06 06:10:15;;;;;;;1.75;0.60;;;16.00;99.90;;;;;;4979498;28;20050;-86
2023/09/06 06:12:41;;;;;;;1.90;0.50;;;16.20;99.90;;;;;;5005081;28;20053;-84
2023/09/06 06:15:08;;;;;;;1.58;0.60;;;16.30;99.90;;;;;;5052869;28;20029;-85
2023/09/06 06:17:35;;;;;;;1.35;0.50;;;16.50;99.90;;;;;;5055532;28;20060;-84
2023/09/06 06:20:03;;;;;;;2.65;0.80;;;16.70;99.90;;;;;;5042580;28;20131;-85
2023/09/06 06:22:29;;;;;;;1.88;0.60;;;16.80;99.90;;;;;;5050227;28;20026;-85
2023/09/06 06:25:00;;;;;;;1.30;0.50;;;16.90;99.90;;;;;;5038739;28;20036;-84
2023/09/06 06:27:26;;;;;;;1.25;0.60;;;17.10;99.90;;;;;;5074515;28;20020;-85
2023/09/06 06:29:51;;;;;;;2.13;0.60;;;17.40;99.90;;;;;;5058421;28;20376;-85
2023/09/06 06:32:19;;;;;;;1.23;0.50;;;17.50;99.90;;;;;;5047268;28;20029;-85
2023/09/06 06:34:49;;;;;;;1.08;0.40;;;17.80;99.90;;;;;;5048468;28;20020;-85
2023/09/06 06:37:15;;;;;;;2.35;0.50;;;18.00;99.90;;;;;;5054225;28;20381;-85
2023/09/06 06:39:41;;;;;;;3.30;0.50;;;18.20;99.90;;;;;;5054232;28;20029;-85
2023/09/06 06:42:07;;;;;;;1.42;0.50;;;18.40;99.90;;;;;;5037277;28;20043;-84
2023/09/06 06:44:37;;;;;;;0.82;0.40;;;18.60;99.90;;;;;;5056378;28;20020;-84
2023/09/06 06:47:04;;;;;;;1.15;0.47;;;18.80;99.90;;;;;;5041498;28;20036;-84
2023/09/06 06:49:30;;;;;;;1.23;0.40;;;19.00;99.90;;;;;;5034773;28;20032;-85
2023/09/06 06:51:56;;;;;;;1.95;0.50;;;19.10;99.90;;;;;;5037076;28;20025;-84
2023/09/06 06:54:22;;;;;;;2.22;0.50;;;19.40;99.90;;;;;;5041080;28;20028;-84
2023/09/06 06:56:47;;;;;;;1.20;0.40;;;19.50;99.90;;;;;;5041630;28;20468;-84
2023/09/06 06:59:13;;;;;;;1.15;0.40;;;19.70;99.90;;;;;;5036921;28;20071;-84
2023/09/06 07:01:39;;;;;;;1.50;0.40;;;19.90;99.90;;;;;;5053710;28;20480;-85
2023/09/06 07:04:05;;;;;;;1.63;0.50;;;20.00;99.90;;;;;;5037619;28;20037;-83
2023/09/06 07:06:31;;;;;;;1.52;0.40;;;20.20;99.90;;;;;;5035309;28;20149;-85
2023/09/06 07:08:58;;;;;;;1.05;0.40;;;20.30;99.90;;;;;;5048085;28;20039;-85
2023/09/06 07:11:24;;;;;;;0.95;0.40;;;20.50;99.90;;;;;;5036271;28;20037;-85
2023/09/06 07:13:51;;;;;;;1.20;0.40;;;20.60;99.90;;;;;;4996947;28;20050;-82
2023/09/06 07:16:19;;;;;;;1.38;0.50;;;20.80;99.90;;;;;;4971578;28;20041;-85
2023/09/06 07:18:45;;;;;;;2.35;0.50;;;21.00;99.90;;;;;;4997180;28;20022;-84
2023/09/06 07:21:12;;;;;;;1.50;0.40;;;21.00;99.90;;;;;;4952785;28;20130;-84
2023/09/06 07:23:37;;;;;;;1.27;0.50;;;21.20;99.90;;;;;;5000110;28;20078;-85
2023/09/06 07:26:04;;;;;;;2.05;0.40;;;21.30;99.90;;;;;;4996399;28;20074;-83
2023/09/06 07:28:39;;;;;;;1.27;0.40;;;21.50;99.90;;;;;;4983207;28;20022;-84
2023/09/06 07:31:05;;;;;;;1.20;0.40;;;21.60;99.90;;;;;;4957814;28;20035;-84
2023/09/06 07:33:31;;;;;;;1.90;0.50;;;21.70;99.90;;;;;;4991541;28;20029;-84
2023/09/06 07:35:57;;;;;;;1.52;0.50;;;21.90;99.90;;;;;;4954280;28;20474;-84
2023/09/06 07:38:22;;;;;;;1.20;0.50;;;21.90;99.90;;;;;;4984323;28;20317;-84
2023/09/06 07:40:56;;;;;;;1.35;0.50;;;22.00;99.90;;;;;;4962927;28;20050;-84
2023/09/06 07:43:21;;;;;;;1.42;0.50;;;22.00;99.90;;;;;;4993186;28;20020;-83
2023/09/06 07:45:47;;;;;;;1.30;0.40;;;22.10;99.90;;;;;;4972717;28;20049;-83
2023/09/06 07:48:13;;;;;;;1.75;0.43;;;22.30;99.90;;;;;;4996193;28;20307;-84
2023/09/06 07:50:39;;;;;;;2.70;0.50;;;22.50;99.90;;;;;;4963263;28;20034;-84
2023/09/06 07:53:04;;;;;;;1.00;0.32;;;22.70;99.90;;;;;;4958314;28;20038;-84
2023/09/06 07:55:30;;;;;;;1.40;0.50;;;22.80;99.90;;;;;;4978564;28;20364;-85
2023/09/06 07:57:56;;;;;;;1.85;0.60;;;22.80;99.90;;;;;;4955824;28;20041;-85
2023/09/06 08:00:21;;;;;;;2.00;0.50;;;22.80;99.90;;;;;;4968908;28;20023;-84
2023/09/06 08:02:47;;;;;;;2.05;0.50;;;23.10;99.90;;;;;;4971125;28;20497;-85
2023/09/06 08:05:13;;;;;;;2.22;0.50;;;23.10;99.90;;;;;;4952852;28;20256;-85
2023/09/06 08:07:39;;;;;;;2.22;0.50;;;23.30;99.90;;;;;;4983962;28;20049;-84
2023/09/06 08:10:09;;;;;;;1.30;0.50;;;23.40;99.90;;;;;;4993959;28;20102;-85
2023/09/06 08:12:36;;;;;;;2.33;0.50;;;23.60;99.90;;;;;;4978512;28;20046;-85
2023/09/06 08:15:03;;;;;;;1.75;0.50;;;23.60;99.90;;;;;;4987555;28;20046;-85
2023/09/06 08:17:29;;;;;;;2.20;0.50;;;23.90;99.90;;;;;;4953146;28;20708;-85
2023/09/06 08:19:55;;;;;;;1.10;0.32;;;24.20;99.90;;;;;;4986531;28;20117;-85
2023/09/06 08:22:21;;;;;;;1.35;0.40;;;24.10;99.90;;;;;;4994117;28;20165;-85
2023/09/06 08:24:46;;;;;;;2.08;0.40;;;24.30;99.90;;;;;;4985209;28;20030;-85
2023/09/06 08:27:12;;;;;;;1.40;0.40;;;24.40;99.90;;;;;;4988939;28;20042;-85
2023/09/06 08:29:38;;;;;;;1.25;0.50;;;24.50;99.90;;;;;;4980864;28;20026;-85
2023/09/06 08:32:04;;;;;;;2.63;0.50;;;24.70;99.90;;;;;;4979927;28;20066;-86
2023/09/06 08:34:29;;;;;;;1.65;0.50;;;24.80;99.90;;;;;;4972846;28;20030;-86
2023/09/06 08:36:56;;;;;;;1.70;0.50;;;24.70;99.90;;;;;;4995606;28;20042;-85
2023/09/06 08:39:22;;;;;;;1.52;0.40;;;24.70;99.90;;;;;;5047152;28;20061;-86
2023/09/06 08:41:49;;;;;;;1.35;0.45;;;24.90;99.90;;;;;;4999571;28;20058;-85
2023/09/06 08:44:18;;;;;;;2.03;0.60;;;25.10;99.90;;;;;;5001525;28;20034;-84
2023/09/06 08:46:46;;;;;;;2.35;0.55;;;24.90;99.90;;;;;;4985325;28;20045;-84
2023/09/06 08:49:13;;;;;;;2.33;0.50;;;25.00;99.90;;;;;;4956552;28;20039;-85
2023/09/06 08:51:42;;;;;;;3.13;0.50;;;25.20;99.90;;;;;;4968614;28;20109;-85
2023/09/06 08:54:09;;;;;;;1.90;0.50;;;25.50;99.90;;;;;;4997117;28;20023;-85
2023/09/06 08:56:35;;;;;;;2.75;0.60;;;25.60;99.90;;;;;;4973352;28;20058;-84
2023/09/06 08:59:01;;;;;;;2.60;0.60;;;25.60;99.90;;;;;;4967392;28;20066;-84
2023/09/06 09:01:28;;;;;;;2.55;0.55;;;25.70;99.90;;;;;;4957077;28;20037;-85
2023/09/06 09:03:54;;;;;;;1.30;0.50;;;25.70;99.90;;;;;;4990302;28;20243;-86
2023/09/06 09:06:20;;;;;;;1.65;0.50;;;25.60;99.90;;;;;;4987427;28;20550;-85
2023/09/06 09:08:46;;;;;;;1.55;0.50;;;25.70;99.90;;;;;;5000444;28;20023;-84
2023/09/06 09:11:14;;;;;;;1.90;0.60;;;25.80;99.90;;;;;;4954421;28;20044;-85
2023/09/06 09:13:41;;;;;;;2.67;0.60;;;25.80;99.90;;;;;;4981951;28;20372;-85
2023/09/06 09:16:08;;;;;;;1.88;0.40;;;25.90;99.90;;;;;;4981711;28;20065;-85
2023/09/06 09:18:36;;;;;;;1.52;0.50;;;26.10;99.90;;;;;;4980991;28;20026;-85
2023/09/06 09:21:04;;;;;;;2.88;0.50;;;26.20;99.90;;;;;;4975708;28;20072;-86
2023/09/06 09:23:31;;;;;;;2.38;0.50;;;26.50;99.90;;;;;;4969140;28;20051;-85
2023/09/06 09:25:57;;;;;;;3.40;0.43;;;26.30;99.90;;;;;;4983909;28;20045;-86
2023/09/06 09:28:23;;;;;;;1.50;0.50;;;26.40;99.90;;;;;;4984893;28;20479;-85
2023/09/06 09:30:49;;;;;;;2.10;0.50;;;26.60;99.90;;;;;;4984328;28;20030;-84
2023/09/06 09:33:15;;;;;;;1.20;0.40;;;26.60;99.90;;;;;;4954061;28;20524;-86
2023/09/06 09:35:40;;;;;;;1.23;0.40;;;26.70;99.90;;;;;;4985088;28;20029;-85
2023/09/06 09:38:10;;;;;;;2.20;0.60;;;26.80;99.90;;;;;;4970253;28;20117;-85
2023/09/06 09:40:37;;;;;;;1.30;0.50;;;26.80;99.90;;;;;;4987580;28;20539;-84
2023/09/06 09:43:06;;;;;;;1.48;0.50;;;26.70;99.90;;;;;;4982982;28;20040;-86
2023/09/06 09:45:44;;;;;;;1.52;0.50;;;26.80;99.90;;;;;;4972684;28;20092;-86
2023/09/06 09:48:10;;;;;;;1.55;0.50;;;27.00;99.90;;;;;;4972989;28;20440;-86
2023/09/06 09:50:41;;;;;;;3.15;0.50;;;27.30;99.90;;;;;;4965386;28;20027;-85
2023/09/06 09:53:08;;;;;;;3.22;0.50;;;27.10;99.90;;;;;;4979399;28;20121;-84
2023/09/06 09:55:40;;;;;;;1.98;0.60;;;27.30;99.90;;;;;;4991009;28;20030;-85
2023/09/06 09:58:10;;;;;;;1.20;0.50;;;27.40;99.90;;;;;;4958048;28;20406;-85
2023/09/06 10:00:39;;;;;;;1.98;0.40;;;27.40;99.90;;;;;;4986638;28;20034;-84
2023/09/06 10:03:04;;;;;;;2.30;0.40;;;27.30;99.90;;;;;;4991379;28;20113;-85
2023/09/06 10:05:31;;;;;;;1.17;0.40;;;27.40;99.90;;;;;;4982571;28;20471;-83
2023/09/06 10:08:00;;;;;;;0.77;0.30;;;27.60;99.90;;;;;;4976776;28;20261;-85
2023/09/06 10:10:27;;;;;;;2.05;0.50;;;27.70;99.90;;;;;;4979825;28;20049;-85
2023/09/06 10:12:54;;;;;;;3.05;0.40;;;27.60;99.90;;;;;;5000818;28;20053;-85
2023/09/06 10:15:23;;;;;;;2.13;0.60;;;27.70;99.90;;;;;;4954778;28;20030;-85
2023/09/06 10:17:54;;;;;;;;;;;27.60;99.90;;;;;;4989483;28;20022;-85
2023/09/06 10:20:23;;;;;;;2.05;0.40;;;27.60;99.90;;;;;;4978521;28;20358;-84
2023/09/06 10:22:52;;;;;;;1.33;0.40;;;27.60;99.90;;;;;;4961249;28;20031;-85
2023/09/06 10:25:18;;;;;;;1.60;0.50;;;27.80;99.90;;;;;;4994076;28;20539;-85
2023/09/06 10:27:49;;;;;;;1.48;0.50;;;27.90;99.90;;;;;;4987929;28;20125;-84
2023/09/06 10:30:17;;;;;;;1.13;0.50;;;28.00;99.90;;;;;;4969000;28;20030;-85
2023/09/06 10:32:46;;;;;;;2.35;0.43;;;27.70;99.90;;;;;;5002154;28;20095;-86
2023/09/06 10:35:24;;;;;;;2.00;0.50;;;28.20;99.90;;;;;;4956787;28;20098;-86
2023/09/06 10:38:10;;;;;;;2.17;0.50;;;28.10;99.90;;;;;;4987805;28;20030;-85
2023/09/06 10:40:51;;;;;;;1.60;0.60;;;28.00;99.90;;;;;;4981811;28;20053;-85
2023/09/06 10:43:18;;;;;;;1.48;0.40;;;28.20;99.90;;;;;;5001847;28;20062;-85
2023/09/06 10:46:18;;;;;;;1.15;0.40;;;28.30;99.90;;;;;;4986377;28;20049;-86
2023/09/06 10:49:02;;;;;;;;;;;28.50;99.90;;;;;;4977301;28;20083;-85
2023/09/06 10:51:28;;;;;;;1.23;0.40;;;28.40;99.90;;;;;;4954369;28;20377;-86
2023/09/06 10:53:56;;;;;;;1.90;0.52;;;28.50;99.90;;;;;;4983880;28;20035;-86
2023/09/06 10:56:28;;;;;;;1.83;0.50;;;29.10;99.90;;;;;;4964984;28;20029;-86
2023/09/06 10:58:57;;;;;;;2.38;0.43;;;28.90;99.90;;;;;;5006288;28;20042;-86
2023/09/06 11:01:23;;;;;;;1.10;0.40;;;28.80;99.90;;;;;;4988080;28;20027;-85
2023/09/06 11:03:52;;;;;;;1.83;0.50;;;29.00;99.90;;;;;;4972411;28;20041;-86
2023/09/06 11:06:20;;;;;;;2.13;0.50;;;29.20;99.90;;;;;;4952628;28;20031;-86
2023/09/06 11:08:47;;;;;;;0.95;0.35;;;29.20;99.90;;;;;;4959552;28;20053;-85
2023/09/06 11:11:14;;;;;;;1.25;0.50;;;29.00;99.90;;;;;;4987249;28;20125;-86
2023/09/06 11:13:42;;;;;;;2.25;0.50;;;29.20;99.90;;;;;;4972572;28;20383;-86
2023/09/06 11:16:15;;;;;;;1.27;0.47;;;29.30;99.90;;;;;;4977044;28;20030;-86
2023/09/06 11:18:50;;;;;;;2.38;0.52;;;29.50;99.90;;;;;;4983858;28;20463;-84
2023/09/06 11:21:17;;;;;;;1.40;0.50;;;29.40;99.90;;;;;;4986259;28;20105;-85
2023/09/06 11:23:47;;;;;;;1.00;0.40;;;29.30;99.90;;;;;;4989844;28;20022;-86
2023/09/06 11:26:13;;;;;;;1.35;0.50;;;29.50;99.90;;;;;;4981012;28;20042;-83
2023/09/06 11:28:43;;;;;;;1.30;0.52;;;29.20;99.90;;;;;;4986894;28;20026;-85
2023/09/06 11:31:25;;;;;;;1.40;0.40;;;29.30;99.90;;;;;;4956703;28;20057;-85
2023/09/06 11:33:55;;;;;;;1.30;0.40;;;29.40;99.90;;;;;;4961864;28;20046;-85
2023/09/06 11:36:27;;;;;;;1.17;0.45;;;29.40;99.90;;;;;;4989423;28;20037;-85
2023/09/06 11:38:54;;;;;;;1.38;0.40;;;29.20;99.90;;;;;;4992327;28;20030;-84
2023/09/06 11:41:21;;;;;;;1.30;0.50;;;29.40;99.90;;;;;;4984292;28;20546;-86
2023/09/06 11:43:49;;;;;;;1.20;0.40;;;29.70;99.70;;;;;;4953642;28;20482;-86
2023/09/06 11:46:17;;;;;;;1.23;0.40;;;29.80;99.90;;;;;;4989446;28;20529;-86
2023/09/06 11:48:44;;;;;;;1.88;0.82;;;29.70;99.90;;;;;;4961447;28;20050;-85
2023/09/06 11:51:13;;;;;;;1.35;0.50;;;29.60;99.90;;;;;;4988056;28;20050;-85
2023/09/06 11:53:45;;;;;;;1.48;0.50;;;29.70;99.90;;;;;;4968332;28;20035;-85
2023/09/06 11:56:13;;;;;;;1.30;0.47;;;29.60;99.90;;;;;;4971364;28;20026;-85
2023/09/06 11:58:49;;;;;;;1.85;0.45;;;29.80;99.90;;;;;;4954644;28;20473;-84
2023/09/06 12:01:24;;;;;;;1.63;0.40;;;29.80;99.40;;;;;;4958365;28;20034;-85
2023/09/06 12:03:53;;;;;;;1.65;0.40;;;29.60;99.30;;;;;;4953382;28;20046;-85
2023/09/06 12:06:18;;;;;;;1.33;0.40;;;29.40;99.70;;;;;;4978978;28;20046;-86
2023/09/06 12:08:44;;;;;;;0.93;0.40;;;29.50;99.30;;;;;;4984572;28;20023;-84
2023/09/06 12:11:20;;;;;;;0.70;0.32;;;29.50;99.10;;;;;;4959618;28;20175;-85
2023/09/06 12:13:46;;;;;;;0.98;0.30;;;29.60;99.10;;;;;;4986370;28;20038;-85
2023/09/06 12:16:12;;;;;;;0.90;0.40;;;30.00;99.80;;;;;;4961323;28;20033;-87
2023/09/06 12:18:38;;;;;;;0.95;0.40;;;30.10;99.90;;;;;;4989444;28;20039;-85
2023/09/06 12:21:05;;;;;;;1.38;0.47;;;30.00;98.10;;;;;;4967509;28;20073;-85
2023/09/06 12:23:32;;;;;;;1.13;0.40;;;30.00;99.40;;;;;;4982850;28;20045;-85
2023/09/06 12:25:59;;;;;;;2.58;0.32;;;29.80;99.50;;;;;;4955424;28;20379;-85
2023/09/06 12:28:26;;;;;;;2.10;0.40;;;29.80;98.70;;;;;;4976101;28;20462;-85
2023/09/06 12:30:55;;;;;;;1.15;0.35;;;29.80;99.40;;;;;;4994769;28;20465;-85
2023/09/06 12:33:24;;;;;;;0.85;0.30;;;29.80;99.40;;;;;;4984209;28;20069;-85
2023/09/06 12:36:00;;;;;;;1.20;0.40;;;29.80;99.40;;;;;;4960538;28;20113;-86
2023/09/06 12:38:31;;;;;;;0.93;0.40;;;29.70;99.10;;;;;;4974596;28;20141;-86
2023/09/06 12:40:58;;;;;;;1.33;0.32;;;29.90;99.40;;;;;;4968683;28;20420;-85
2023/09/06 12:43:25;;;;;;;0.80;0.40;;;29.90;99.10;;;;;;4966173;28;20113;-85
2023/09/06 12:45:53;;;;;;;1.35;0.30;;;29.90;97.40;;;;;;5001761;28;20122;-86
2023/09/06 12:48:21;;;;;;;0.90;0.50;;;30.00;98.20;;;;;;4966950;28;20425;-85
2023/09/06 12:50:48;;;;;;;0.98;0.35;;;29.80;98.90;;;;;;4976734;28;20023;-85
2023/09/06 12:53:13;;;;;;;1.00;0.30;;;29.90;98.50;;;;;;4989663;28;20247;-87